MDT,Max TemperatureF,Mean TemperatureF,Min TemperatureF,Max Dew PointF,MeanDew PointF,Min DewpointF,Max Humidity, Mean Humidity, Min Humidity, Max Sea Level PressureIn, Mean Sea Level PressureIn, Min Sea Level PressureIn, Max VisibilityMiles, Mean VisibilityMiles, Min VisibilityMiles, Max Wind SpeedMPH, Mean Wind SpeedMPH, Max Gust SpeedMPH,PrecipitationIn, CloudCover, Events, WindDirDegrees
2012-10-1,78,54,30,42,34,27,85,52,19,30.34,30.09,29.69,,,,21,7,25,0.00,,,232
2012-10-2,72,59,45,39,34,30,59,44,28,29.90,29.77,29.66,,,,17,8,22,0.00,,,345
2012-10-3,48,43,38,39,36,31,92,76,60,30.52,30.26,29.91,,,,20,15,30,0.12,,,349
2012-10-4,46,39,32,35,33,30,100,81,62,30.51,30.47,30.43,,,,15,4,16,0.01,,,29
2012-10-5,43,33,23,32,29,22,100,79,57,30.53,30.48,30.43,,,,14,3,17,0.23,,,358
2012-10-6,52,36,19,31,23,16,91,59,26,30.53,30.37,30.15,,,,20,7,26,0.00,,,260
2012-10-7,64,48,31,38,33,25,96,61,26,30.14,29.96,29.78,,,,21,10,25,0.00,,,278
2012-10-8,54,47,40,44,35,27,86,65,44,30.04,29.90,29.80,,,,25,14,31,0.01,,,309
2012-10-9,51,41,30,34,31,26,92,67,42,30.17,30.12,30.05,,,,21,6,25,0.01,,,291
2012-10-10,67,48,28,36,33,26,92,60,28,30.15,29.97,29.86,,,,22,11,28,0.00,,,322
2012-10-11,41,37,32,32,29,25,89,72,55,30.38,30.28,30.13,,,,16,8,21,0.00,,,99
2012-10-12,76,50,24,37,31,23,92,55,18,30.07,29.81,29.65,,,,18,5,23,0.00,,,232
2012-10-13,69,53,36,41,34,29,70,51,31,29.98,29.86,29.71,,,,23,9,28,0.00,,,288
2012-10-14,74,58,42,39,37,35,71,48,25,30.07,29.96,29.78,,,,23,9,29,0.00,,,267
2012-10-15,73,59,45,51,41,34,89,60,31,29.76,29.73,29.69,,,,25,10,33,0.01,,,275
2012-10-16,59,50,40,52,43,32,93,71,48,29.71,29.47,29.32,,,,45,13,59,0.50,,,267
2012-10-17,52,46,39,38,26,18,82,56,29,30.03,29.83,29.59,,,,41,24,54,0.00,,,301
2012-10-18,54,40,26,26,23,20,85,56,26,30.20,30.13,30.04,,,,29,13,38,0.00,,,308
2012-10-19,71,48,25,39,31,22,85,56,26,30.06,29.76,29.56,,,,21,5,24,0.00,,,242
2012-10-20,69,55,41,41,35,23,77,53,28,29.79,29.57,29.50,,,,24,9,33,0.00,,,282
2012-10-21,54,45,36,31,27,19,82,54,26,30.01,29.94,29.81,,,,16,4,20,0.00,,,50
2012-10-22,46,43,39,40,36,29,100,77,53,29.96,29.85,29.65,,,,22,11,28,0.40,,,86
2012-10-23,43,35,27,39,30,23,100,75,49,30.04,29.83,29.64,,,,24,11,30,0.01,,,290
2012-10-24,39,28,16,25,21,14,92,72,52,30.31,30.18,30.05,,,,15,8,20,0.00,,,306
2012-10-25,31,29,27,21,18,14,81,69,57,30.52,30.42,30.31,,,,21,15,25,0.00,,,313
2012-10-26,39,32,24,22,18,14,81,66,51,30.53,30.40,30.26,,,,17,7,22,0.00,,,310
2012-10-27,35,28,21,26,23,19,92,78,64,30.28,30.23,30.18,,,,13,7,17,0.00,,,86
2012-10-28,50,40,30,36,31,25,92,74,56,30.14,29.97,29.87,,,,13,6,15,0.01,,,125
2012-10-29,54,44,34,47,39,32,96,86,76,29.97,29.94,29.89,,,,8,1,8,0.01,,,208
2012-10-30,65,48,31,41,35,28,96,64,31,30.06,29.99,29.95,,,,13,3,16,0.00,,,268
2012-10-31,43,38,33,39,34,31,93,85,76,30.20,30.09,29.93,,,,16,8,21,0.00,,,52